Time;durP1;ratioP1;P1;durP2;ratioP2;P2;SDS_P1;SDS_P2;PMS_P1;PMS_P2;Temp;Humidity;BMP_temperature;BMP_pressure;BME280_temperature;BME280_humidity;BME280_pressure;Samples;Min_cycle;Max_cycle;Signal;HPM_P1;HPM_P2
2022/08/30 00:01:21;;;;;;;;;;;20.80;99.90;;;;;;5055038;28;20003;-83
2022/08/30 00:03:46;;;;;;;;;;;20.80;99.90;;;;;;5056603;28;20307;-84
2022/08/30 00:06:16;;;;;;;;;;;20.80;99.90;;;;;;5055818;28;19913;-86
2022/08/30 00:08:42;;;;;;;;;;;20.80;99.90;;;;;;5054442;28;19924;-84
2022/08/30 00:11:11;;;;;;;;;;;20.80;99.90;;;;;;5056514;28;20330;-83
2022/08/30 00:13:37;;;;;;;;;;;20.80;99.90;;;;;;5056171;28;19908;-82
2022/08/30 00:16:03;;;;;;;;;;;20.70;99.90;;;;;;5054209;28;19913;-85
2022/08/30 00:18:29;;;;;;;;;;;20.70;99.90;;;;;;5071043;28;19954;-82
2022/08/30 00:20:54;;;;;;;;;;;20.70;99.90;;;;;;5054401;28;19927;-84
2022/08/30 00:23:20;;;;;;;;;;;20.80;99.90;;;;;;5054401;28;20421;-83
2022/08/30 00:25:46;;;;;;;;;;;20.80;99.90;;;;;;5053933;28;19916;-84
2022/08/30 00:28:12;;;;;;;;;;;20.80;99.90;;;;;;5057833;28;19910;-86
2022/08/30 00:30:38;;;;;;;;;;;20.80;99.90;;;;;;5057786;28;20015;-84
2022/08/30 00:33:04;;;;;;;;;;;20.70;99.90;;;;;;5057871;28;19909;-86
2022/08/30 00:35:29;;;;;;;;;;;20.70;99.90;;;;;;5057994;28;19909;-83
2022/08/30 00:37:55;;;;;;;;;;;20.70;99.90;;;;;;5059228;28;20000;-85
2022/08/30 00:40:21;;;;;;;;;;;20.70;99.90;;;;;;5057382;28;19974;-83
2022/08/30 00:42:46;;;;;;;;;;;20.60;99.90;;;;;;5057791;28;20399;-83
2022/08/30 00:45:14;;;;;;;;;;;20.60;99.90;;;;;;5057038;28;19954;-83
2022/08/30 00:47:40;;;;;;;;;;;20.50;99.90;;;;;;5058195;28;19908;-84
2022/08/30 00:50:07;;;;;;;;;;;20.50;99.90;;;;;;5057060;28;19916;-83
2022/08/30 00:52:34;;;;;;;;;;;20.40;99.90;;;;;;5056998;28;20303;-84
2022/08/30 00:55:00;;;;;;;;;;;20.40;99.90;;;;;;5074702;28;19913;-85
2022/08/30 00:57:27;;;;;;;;;;;20.30;99.90;;;;;;5057031;28;20386;-86
2022/08/30 00:59:53;;;;;;;;;;;20.30;99.90;;;;;;5056732;28;20011;-84
2022/08/30 01:02:20;;;;;;;;;;;20.30;99.90;;;;;;5056674;28;20039;-83
2022/08/30 01:04:46;;;;;;;;;;;20.20;99.90;;;;;;5057283;28;20428;-83
2022/08/30 01:07:12;;;;;;;;;;;20.20;99.90;;;;;;5056523;28;19913;-83
2022/08/30 01:09:37;;;;;;;;;;;20.10;99.90;;;;;;5058496;28;19923;-84
2022/08/30 01:12:04;;;;;;;;;;;20.10;99.90;;;;;;5073164;28;19909;-84
2022/08/30 01:14:32;;;;;;;;;;;20.10;99.90;;;;;;5058469;28;19935;-84
2022/08/30 01:17:00;;;;;;;;;;;20.10;99.90;;;;;;5056867;28;20280;-85
2022/08/30 01:19:55;;;;;;;;;;;20.10;99.90;;;;;;5058238;28;20027;-83
2022/08/30 01:22:20;;;;;;;;;;;20.00;99.90;;;;;;5047200;28;19925;-83
2022/08/30 01:24:47;;;;;;;;;;;19.90;99.90;;;;;;5055736;28;20119;-83
2022/08/30 01:27:14;;;;;;;;;;;19.90;99.90;;;;;;5055041;28;20433;-83
2022/08/30 01:29:43;;;;;;;;;;;19.90;99.90;;;;;;5055709;28;20387;-83
2022/08/30 01:32:17;;;;;;;;;;;19.80;99.90;;;;;;5055886;28;19909;-82
2022/08/30 01:34:43;;;;;;;;;;;19.80;99.90;;;;;;5055931;28;19997;-83
2022/08/30 01:37:09;;;;;;;;;;;19.80;99.90;;;;;;5056687;28;19908;-82
2022/08/30 01:39:34;;;;;;;;;;;19.70;99.90;;;;;;5056519;28;19915;-83
2022/08/30 01:42:00;;;;;;;;;;;19.80;99.90;;;;;;5055277;28;19920;-83
2022/08/30 01:44:25;;;;;;;;;;;19.80;99.90;;;;;;5055453;28;19909;-83
2022/08/30 01:46:51;;;;;;;;;;;19.80;99.90;;;;;;5071540;28;20383;-83
2022/08/30 01:49:18;;;;;;;;;;;19.80;99.90;;;;;;5055435;28;20296;-82
2022/08/30 01:51:43;;;;;;;;;;;19.80;99.90;;;;;;5071925;28;19912;-83
2022/08/30 01:54:09;;;;;;;;;;;19.80;99.90;;;;;;5072241;28;19954;-83
2022/08/30 01:56:35;;;;;;;;;;;19.80;99.90;;;;;;5055289;28;20050;-83
2022/08/30 01:59:00;;;;;;;;;;;19.80;99.90;;;;;;5055342;28;19986;-83
2022/08/30 02:01:27;;;;;;;;;;;19.80;99.90;;;;;;5056329;28;19920;-82
2022/08/30 02:03:54;;;;;;;;;;;19.80;99.90;;;;;;5055199;28;20015;-83
2022/08/30 02:06:19;;;;;;;;;;;19.80;99.90;;;;;;5054703;28;19916;-83
2022/08/30 02:08:45;;;;;;;;;;;19.80;99.90;;;;;;5054301;28;19916;-83
2022/08/30 02:11:11;;;;;;;;;;;19.80;99.90;;;;;;5054513;28;19908;-83
2022/08/30 02:13:37;;;;;;;;;;;19.80;99.90;;;;;;5055852;28;19909;-83
2022/08/30 02:16:07;;;;;;;;;;;19.80;99.90;;;;;;5055626;28;19912;-83
2022/08/30 02:18:33;;;;;;;;;;;19.80;99.90;;;;;;5054455;28;19916;-83
2022/08/30 02:20:59;;;;;;;;;;;19.80;99.90;;;;;;5053261;28;19920;-82
2022/08/30 02:23:25;;;;;;;;;;;19.80;99.90;;;;;;5054491;28;20287;-83
2022/08/30 02:25:51;;;;;;;;;;;19.80;99.90;;;;;;5053987;28;19909;-83
2022/08/30 02:28:18;;;;;;;;;;;19.80;99.90;;;;;;5052736;28;19909;-83
2022/08/30 02:30:44;;;;;;;;;;;19.80;99.90;;;;;;5069388;28;19916;-82
2022/08/30 02:33:10;;;;;;;;;;;19.80;99.90;;;;;;5053820;28;19999;-83
2022/08/30 02:35:35;;;;;;;;;;;19.80;99.90;;;;;;5053653;28;19952;-82
2022/08/30 02:38:01;;;;;;;;;;;19.80;99.90;;;;;;5052521;28;19916;-83
2022/08/30 02:40:26;;;;;;;;;;;19.80;99.90;;;;;;5053723;28;19913;-83
2022/08/30 02:42:52;;;;;;;;;;;19.80;99.90;;;;;;5052481;28;19912;-82
2022/08/30 02:45:18;;;;;;;;;;;19.70;99.90;;;;;;5053676;28;19915;-83
2022/08/30 02:47:43;;;;;;;;;;;19.70;99.90;;;;;;5053262;28;19932;-82
2022/08/30 02:50:09;;;;;;;;;;;19.70;99.90;;;;;;5051739;28;19909;-83
2022/08/30 02:52:35;;;;;;;;;;;19.70;99.90;;;;;;5052330;28;19964;-82
2022/08/30 02:55:01;;;;;;;;;;;19.70;99.90;;;;;;5052553;28;19916;-82
2022/08/30 02:57:26;;;;;;;;;;;19.60;99.90;;;;;;5053490;28;19909;-83
2022/08/30 02:59:52;;;;;;;;;;;19.60;99.90;;;;;;5053580;28;19995;-82
2022/08/30 03:02:17;;;;;;;;;;;19.60;99.90;;;;;;5053540;28;20007;-82
2022/08/30 03:04:43;;;;;;;;;;;19.50;99.90;;;;;;5052386;28;20349;-82
2022/08/30 03:07:11;;;;;;;;;;;19.50;99.90;;;;;;5052140;28;19967;-82
2022/08/30 03:09:37;;;;;;;;;;;19.50;99.90;;;;;;5053070;28;19924;-83
2022/08/30 03:12:04;;;;;;;;;;;19.40;99.90;;;;;;5068549;28;19912;-82
2022/08/30 03:14:30;;;;;;;;;;;19.40;99.90;;;;;;5051811;28;19913;-83
2022/08/30 03:16:56;;;;;;;;;;;19.30;99.90;;;;;;5051691;28;19909;-83
2022/08/30 03:19:22;;;;;;;;;;;19.40;99.90;;;;;;5053001;28;19920;-83
2022/08/30 03:21:47;;;;;;;;;;;19.40;99.90;;;;;;5052940;28;20300;-82
2022/08/30 03:24:13;;;;;;;;;;;19.40;99.90;;;;;;5052972;28;19916;-83
2022/08/30 03:26:38;;;;;;;;;;;19.40;99.90;;;;;;5052746;28;19909;-83
2022/08/30 03:29:04;;;;;;;;;;;19.40;99.90;;;;;;5051569;28;19915;-83
2022/08/30 03:31:29;;;;;;;;;;;19.40;99.90;;;;;;5068220;28;19981;-83
2022/08/30 03:33:55;;;;;;;;;;;19.40;99.90;;;;;;5052599;28;20265;-83
2022/08/30 03:36:20;;;;;;;;;;;19.40;99.90;;;;;;5068708;28;19916;-82
2022/08/30 03:38:46;;;;;;;;;;;19.30;99.90;;;;;;5052838;28;20303;-82
2022/08/30 03:41:11;;;;;;;;;;;19.30;99.90;;;;;;5051391;28;20296;-83
2022/08/30 03:43:37;;;;;;;;;;;19.30;99.90;;;;;;5051469;28;19996;-83
2022/08/30 03:46:03;;;;;;;;;;;19.20;99.90;;;;;;5051079;28;19909;-82
2022/08/30 03:48:28;;;;;;;;;;;19.20;99.90;;;;;;5051523;28;19915;-82
2022/08/30 03:50:54;;;;;;;;;;;19.30;99.90;;;;;;5051452;28;19915;-82
2022/08/30 03:53:19;;;;;;;;;;;19.20;99.90;;;;;;5051373;28;19916;-82
2022/08/30 03:55:45;;;;;;;;;;;19.20;99.90;;;;;;5051365;28;19909;-83
2022/08/30 03:58:10;;;;;;;;;;;19.20;99.90;;;;;;5051247;28;20392;-82
2022/08/30 04:00:36;;;;;;;;;;;19.20;99.90;;;;;;5051379;28;20020;-82
2022/08/30 04:03:02;;;;;;;;;;;19.20;99.90;;;;;;5052613;28;20027;-82
2022/08/30 04:05:27;;;;;;;;;;;19.20;99.90;;;;;;5067888;28;19908;-82
2022/08/30 04:07:53;;;;;;;;;;;19.10;99.90;;;;;;5051333;28;19913;-83
2022/08/30 04:10:21;;;;;;;;;;;19.10;99.90;;;;;;5052429;28;20360;-82
2022/08/30 04:12:47;;;;;;;;;;;19.00;99.90;;;;;;5052975;28;19909;-82
2022/08/30 04:15:13;;;;;;;;;;;18.90;99.90;;;;;;5053561;28;19915;-82
2022/08/30 04:17:39;;;;;;;;;;;18.90;99.90;;;;;;5052188;28;20414;-83
2022/08/30 04:20:04;;;;;;;;;;;18.90;99.90;;;;;;5052312;28;19909;-83
2022/08/30 04:22:30;;;;;;;;;;;18.80;99.90;;;;;;5052352;28;19916;-82
2022/08/30 04:24:55;;;;;;;;;;;18.80;99.90;;;;;;5050965;28;19909;-82
2022/08/30 04:27:21;;;;;;;;;;;18.80;99.90;;;;;;5052106;28;20002;-82
2022/08/30 04:29:46;;;;;;;;;;;18.80;99.90;;;;;;5052252;28;19909;-82
2022/08/30 04:32:12;;;;;;;;;;;18.80;99.90;;;;;;5052181;28;19913;-82
2022/08/30 04:34:37;;;;;;;;;;;18.90;99.90;;;;;;5050919;28;19912;-82
2022/08/30 04:37:03;;;;;;;;;;;18.90;99.90;;;;;;5050650;28;20011;-82
2022/08/30 04:39:28;;;;;;;;;;;19.00;99.90;;;;;;5052014;28;19935;-83
2022/08/30 04:41:54;;;;;;;;;;;19.00;99.90;;;;;;5051968;28;20372;-82
2022/08/30 04:44:20;;;;;;;;;;;19.00;99.90;;;;;;5050703;28;19924;-82
2022/08/30 04:46:46;;;;;;;;;;;19.00;99.90;;;;;;5051830;28;19915;-82
2022/08/30 04:49:12;;;;;;;;;;;19.00;99.90;;;;;;5067296;28;19966;-83
2022/08/30 04:51:37;;;;;;;;;;;19.00;99.90;;;;;;5067402;28;20331;-82
2022/08/30 04:54:03;;;;;;;;;;;19.00;99.90;;;;;;5051935;28;20449;-83
2022/08/30 04:56:29;;;;;;;;;;;19.00;99.90;;;;;;5051660;28;19909;-83
2022/08/30 04:58:54;;;;;;;;;;;19.00;99.90;;;;;;5051056;28;19909;-82
2022/08/30 05:01:21;;;;;;;;;;;19.00;99.90;;;;;;5050559;28;19913;-83
2022/08/30 05:03:48;;;;;;;;;;;19.00;99.90;;;;;;5050519;28;19970;-83
2022/08/30 05:06:14;;;;;;;;;;;18.90;99.90;;;;;;5051598;28;19958;-82
2022/08/30 05:08:39;;;;;;;;;;;18.90;99.90;;;;;;5050340;28;20393;-83
2022/08/30 05:11:06;;;;;;;;;;;18.90;99.90;;;;;;5051830;28;19999;-83
2022/08/30 05:13:32;;;;;;;;;;;18.90;99.90;;;;;;5055698;28;20280;-82
2022/08/30 05:15:59;;;;;;;;;;;18.90;99.90;;;;;;5054353;28;19909;-82
2022/08/30 05:18:24;;;;;;;;;;;19.00;99.90;;;;;;5054416;28;19908;-82
2022/08/30 05:21:01;;;;;;;;;;;19.00;99.90;;;;;;5054168;28;19963;-83
2022/08/30 05:23:26;;;;;;;;;;;19.00;99.90;;;;;;5055321;28;19908;-82
2022/08/30 05:25:52;;;;;;;;;;;19.00;99.90;;;;;;5054287;28;19913;-83
2022/08/30 05:28:18;;;;;;;;;;;19.10;99.90;;;;;;5057045;28;20403;-83
2022/08/30 05:30:43;;;;;;;;;;;19.10;99.90;;;;;;5055823;28;19909;-82
2022/08/30 05:33:09;;;;;;;;;;;19.10;99.90;;;;;;5072801;28;19916;-83
2022/08/30 05:35:34;;;;;;;;;;;19.00;99.90;;;;;;5057292;28;20005;-83
2022/08/30 05:38:00;;;;;;;;;;;19.10;99.90;;;;;;5053719;28;19909;-82
2022/08/30 05:40:25;;;;;;;;;;;19.10;99.90;;;;;;5055811;28;19913;-83
2022/08/30 05:42:51;;;;;;;;;;;19.10;99.90;;;;;;5056145;28;19909;-83
2022/08/30 05:45:16;;;;;;;;;;;19.10;99.90;;;;;;5054513;28;19908;-83
2022/08/30 05:47:42;;;;;;;;;;;19.20;99.90;;;;;;5054695;28;19908;-82
2022/08/30 05:50:08;;;;;;;;;;;19.20;99.90;;;;;;5055000;28;20407;-83
2022/08/30 05:52:34;;;;;;;;;;;19.30;99.90;;;;;;5053624;28;19975;-82
2022/08/30 05:55:02;;;;;;;;;;;19.40;99.90;;;;;;5054697;28;19912;-83
2022/08/30 05:57:30;;;;;;;;;;;19.50;99.90;;;;;;5056353;28;20364;-83
2022/08/30 05:59:56;;;;;;;;;;;19.60;99.90;;;;;;5053212;28;19909;-82
2022/08/30 06:02:22;;;;;;;;;;;19.80;99.90;;;;;;5069967;28;19978;-83
2022/08/30 06:04:47;;;;;;;;;;;19.90;99.90;;;;;;5053202;28;19917;-83
2022/08/30 06:07:13;;;;;;;;;;;20.10;99.90;;;;;;5053270;28;19916;-82
2022/08/30 06:09:38;;;;;;;;;;;20.30;99.90;;;;;;5054706;28;19924;-83
2022/08/30 06:12:04;;;;;;;;;;;20.50;99.90;;;;;;5054641;28;19932;-82
2022/08/30 06:14:29;;;;;;;;;;;20.60;99.90;;;;;;5054920;28;20328;-83
2022/08/30 06:16:56;;;;;;;;;;;20.70;99.90;;;;;;5054534;28;19909;-83
2022/08/30 06:19:22;;;;;;;;;;;20.80;99.90;;;;;;5052983;28;19909;-83
2022/08/30 06:21:48;;;;;;;;;;;20.90;99.90;;;;;;5052877;28;20376;-83
2022/08/30 06:24:13;;;;;;;;;;;21.00;99.90;;;;;;5051855;28;19909;-83
2022/08/30 06:26:40;;;;;;;;;;;21.10;99.90;;;;;;5053882;28;19916;-83
2022/08/30 06:29:07;;;;;;;;;;;21.20;99.90;;;;;;5053929;28;20364;-83
2022/08/30 06:31:32;;;;;;;;;;;21.30;99.90;;;;;;5052723;28;19913;-83
2022/08/30 06:33:58;;;;;;;;;;;21.40;99.90;;;;;;5052729;28;20016;-83
2022/08/30 06:36:24;;;;;;;;;;;21.50;99.90;;;;;;5054187;28;19909;-83
2022/08/30 06:38:51;;;;;;;;;;;21.70;99.90;;;;;;5053938;28;19958;-83
2022/08/30 06:41:18;;;;;;;;;;;21.80;99.90;;;;;;5053008;28;19917;-84
2022/08/30 06:43:43;;;;;;;;;;;21.90;99.90;;;;;;5052542;28;19909;-82
2022/08/30 06:46:14;;;;;;;;;;;22.00;99.90;;;;;;5052399;28;19916;-84
2022/08/30 06:48:39;;;;;;;;;;;22.10;99.90;;;;;;5052318;28;19963;-83
2022/08/30 06:51:05;;;;;;;;;;;22.10;99.90;;;;;;5052369;28;20288;-83
2022/08/30 06:53:30;;;;;;;;;;;22.20;99.90;;;;;;5053519;28;19916;-83
2022/08/30 06:56:00;;;;;;;;;;;22.20;99.90;;;;;;5052258;28;20361;-83
2022/08/30 06:58:26;;;;;;;;;;;22.30;99.90;;;;;;5053311;28;20307;-84
2022/08/30 07:00:52;;;;;;;;;;;22.50;99.90;;;;;;5052051;28;19917;-83
2022/08/30 07:03:18;;;;;;;;;;;22.70;99.90;;;;;;5053467;28;19915;-83
2022/08/30 07:05:44;;;;;;;;;;;23.00;99.90;;;;;;5053221;28;19913;-83
2022/08/30 07:08:09;;;;;;;;;;;23.20;99.90;;;;;;5053168;28;19917;-83
2022/08/30 07:10:39;;;;;;;;;;;23.30;99.90;;;;;;5052091;28;19909;-84
2022/08/30 07:13:05;;;;;;;;;;;23.40;99.90;;;;;;5051881;28;19959;-83
2022/08/30 07:15:30;;;;;;;;;;;23.40;99.90;;;;;;5052264;28;19948;-83
2022/08/30 07:20:40;;;;;;;;;;;23.40;99.90;;;;;;5054425;28;20065;-83
2022/08/30 07:23:05;;;;;;;;;;;23.40;99.90;;;;;;5052941;28;19912;-84
2022/08/30 07:25:32;;;;;;;;;;;23.40;99.90;;;;;;5055068;28;19917;-84
2022/08/30 07:27:57;;;;;;;;;;;23.50;99.90;;;;;;5055212;28;19954;-83
2022/08/30 07:30:23;;;;;;;;;;;23.60;99.90;;;;;;5054341;28;19913;-84
2022/08/30 07:32:48;;;;;;;;;;;23.70;99.90;;;;;;5054905;28;19915;-85
2022/08/30 07:35:14;;;;;;;;;;;23.70;99.90;;;;;;5054472;28;19970;-83
2022/08/30 07:37:40;;;;;;;;;;;23.90;99.90;;;;;;5052750;28;19909;-83
2022/08/30 07:40:06;;;;;;;;;;;23.90;99.90;;;;;;5052825;28;19957;-84
2022/08/30 07:42:31;;;;;;;;;;;24.00;99.90;;;;;;5053172;28;20373;-83
2022/08/30 07:44:57;;;;;;;;;;;24.10;99.90;;;;;;5055104;28;19909;-84
2022/08/30 07:47:22;;;;;;;;;;;24.30;99.90;;;;;;5069893;28;19909;-84
2022/08/30 07:49:48;;;;;;;;;;;24.40;99.90;;;;;;5069735;28;19968;-86
2022/08/30 07:52:13;;;;;;;;;;;24.60;99.90;;;;;;5053144;28;19967;-84
2022/08/30 07:54:39;;;;;;;;;;;24.80;99.90;;;;;;5052316;28;19909;-84
2022/08/30 07:57:04;;;;;;;;;;;25.10;99.90;;;;;;5068004;28;19915;-83
2022/08/30 07:59:29;;;;;;;;;;;25.30;99.90;;;;;;5053341;28;20418;-83
2022/08/30 08:01:55;;;;;;;;;;;25.50;99.90;;;;;;5055221;28;19912;-84
2022/08/30 08:04:20;;;;;;;;;;;25.60;99.90;;;;;;5053825;28;19923;-85
2022/08/30 08:06:46;;;;;;;;;;;25.70;99.90;;;;;;5072307;28;19913;-85
2022/08/30 08:09:12;;;;;;;;;;;25.70;99.90;;;;;;5073241;28;19948;-84
2022/08/30 08:11:39;;;;;;;;;;;25.70;99.90;;;;;;5072149;28;19913;-85
2022/08/30 08:14:05;;;;;;;;;;;25.80;99.90;;;;;;5071538;28;19915;-86
2022/08/30 08:16:33;;;;;;;;;;;25.80;99.90;;;;;;5077349;28;20384;-82
2022/08/30 08:18:58;;;;;;;;;;;25.90;99.90;;;;;;5051780;28;20265;-84
2022/08/30 08:21:24;;;;;;;;;;;26.00;99.90;;;;;;5051184;28;19920;-84
2022/08/30 08:23:50;;;;;;;;;;;26.10;99.90;;;;;;5051081;28;19913;-84
2022/08/30 08:26:16;;;;;;;;;;;26.30;99.90;;;;;;5050574;28;20284;-84
2022/08/30 08:28:41;;;;;;;;;;;26.40;99.90;;;;;;5050772;28;20407;-83
2022/08/30 08:31:17;;;;;;;;;;;26.50;99.90;;;;;;5052669;28;20552;-83
2022/08/30 08:33:43;;;;;;;;;;;26.60;99.90;;;;;;5051501;28;20346;-84
2022/08/30 08:36:08;;;;;;;;;;;26.70;99.90;;;;;;5052472;28;19923;-84
2022/08/30 08:38:35;;;;;;;;;;;26.80;99.90;;;;;;5050991;28;19915;-85
2022/08/30 08:41:11;;;;;;;;;;;27.00;99.40;;;;;;5051998;28;19913;-84
2022/08/30 08:43:37;;;;;;;;;;;27.20;96.20;;;;;;5051175;28;19909;-85
2022/08/30 08:46:09;;;;;;;;;;;27.20;95.30;;;;;;5050805;28;19909;-83
2022/08/30 08:48:38;;;;;;;;;;;27.20;95.20;;;;;;5054416;28;19915;-84
2022/08/30 08:53:54;;;;;;;;;;;28.80;92.80;;;;;;5056412;28;19959;-84
2022/08/30 08:56:21;;;;;;;;;;;30.00;90.40;;;;;;5054572;28;20291;-84
2022/08/30 08:58:52;;;;;;;;;;;31.10;99.90;;;;;;5054688;28;19913;-84
2022/08/30 09:01:19;;;;;;;;;;;32.20;99.90;;;;;;5054553;28;20014;-85
2022/08/30 09:03:45;;;;;;;;;;;33.40;99.90;;;;;;5054642;28;20288;-85
2022/08/30 09:06:31;;;;;;;;;;;34.60;99.90;;;;;;5061600;28;19909;-85
2022/08/30 09:08:57;;;;;;;;;;;35.50;99.90;;;;;;5074206;28;19917;-85
2022/08/30 09:11:25;;;;;;;;;;;36.60;99.90;;;;;;5074335;28;19908;-85
2022/08/30 09:13:51;;;;;;;;;;;37.50;99.90;;;;;;5074469;28;20456;-85
2022/08/30 09:16:35;;;;;;;;;;;38.40;99.90;;;;;;5074105;28;19909;-84
2022/08/30 09:19:01;;;;;;;;;;;39.00;99.90;;;;;;5074366;28;20310;-84
2022/08/30 09:21:27;;;;;;;;;;;39.70;99.90;;;;;;5075694;28;19999;-85
2022/08/30 09:23:58;;;;;;;;;;;40.40;99.90;;;;;;5074637;28;19908;-84
2022/08/30 09:26:32;;;;;;;;;;;41.10;99.90;;;;;;5075846;28;20393;-85
2022/08/30 09:28:59;;;;;;;;;;;41.60;99.90;;;;;;5076321;28;20435;-85
2022/08/30 09:31:32;;;;;;;;;;;41.80;99.90;;;;;;5074793;28;19938;-84
2022/08/30 09:34:02;;;;;;;;;;;41.90;99.90;;;;;;5074581;28;20011;-85
2022/08/30 09:36:42;;;;;;;;;;;41.60;99.90;;;;;;5075754;28;19909;-84
2022/08/30 09:39:26;;;;;;;;;;;41.40;99.90;;;;;;5075740;28;19908;-84
2022/08/30 09:41:52;;;;;;;;;;;41.10;99.90;;;;;;5075950;28;20386;-85
2022/08/30 09:44:22;;;;;;;;;;;40.60;99.90;;;;;;5075764;28;19909;-86
2022/08/30 09:46:53;;;;;;;;;;;40.00;99.90;;;;;;5074306;28;19913;-85
2022/08/30 09:49:35;;;;;;;;;;;39.30;99.90;;;;;;5074116;28;19913;-84
2022/08/30 09:52:00;;;;;;;;;;;38.40;99.90;;;;;;5074181;28;19913;-84
2022/08/30 09:54:33;;;;;;;;;;;37.40;99.90;;;;;;5073748;28;20026;-85
2022/08/30 09:57:11;;;;;;;;;;;36.70;99.90;;;;;;5074748;28;19909;-84
2022/08/30 09:59:44;;;;;;;;;;;35.90;99.90;;;;;;5073677;28;19958;-83
2022/08/30 10:02:25;;;;;;;;;;;35.10;99.90;;;;;;5074046;28;19913;-83
2022/08/30 10:05:20;;;;;;;;;;;34.30;99.90;;;;;;5073208;28;19958;-85
2022/08/30 10:10:30;;;;;;;;;;;33.30;99.90;;;;;;5035469;28;19925;-83
2022/08/30 10:12:55;;;;;;;;;;;33.30;1.00;;;;;;5033728;28;19909;-85
2022/08/30 10:15:47;;;;;;;;;;;33.60;1.00;;;;;;5023907;28;19980;-83
2022/08/30 10:18:42;;;;;;;;;;;33.60;99.90;;;;;;5005621;28;19997;-84
2022/08/30 10:21:31;;;;;;;;;;;33.70;99.90;;;;;;5009851;28;19914;-85
2022/08/30 10:23:59;;;;;;;;;;;33.60;83.90;;;;;;4996787;28;20020;-84
2022/08/30 10:26:34;;;;;;;;;;;33.00;1.00;;;;;;5021681;28;20443;-85
2022/08/30 10:28:59;;;;;;;;;;;32.60;99.90;;;;;;5027035;28;20356;-85
2022/08/30 10:31:28;;;;;;;;;;;32.40;1.00;;;;;;5012846;28;19944;-84
2022/08/30 10:33:56;;;;;;;;;;;32.20;1.00;;;;;;5012765;28;19916;-83
2022/08/30 10:36:26;;;;;;;;;;;32.10;44.00;;;;;;5013262;28;19945;-84
2022/08/30 10:38:52;;;;;;;;;;;31.90;45.40;;;;;;5013392;28;20312;-82
2022/08/30 10:41:30;;;;;;;;;;;31.70;42.20;;;;;;5012255;28;19914;-84
2022/08/30 10:43:56;;;;;;;;;;;31.70;43.00;;;;;;5029087;28;19909;-84
2022/08/30 10:46:33;;;;;;;;;;;31.70;44.70;;;;;;5028144;28;20377;-84
2022/08/30 10:49:00;;;;;;;;;;;31.70;45.20;;;;;;5027703;28;20004;-85
2022/08/30 10:51:29;;;;;;;;;;;31.50;47.30;;;;;;5012029;28;19963;-80
2022/08/30 10:54:13;;;;;;;;;;;31.40;47.90;;;;;;5013081;28;19909;-83
2022/08/30 10:56:41;;;;;;;;;;;31.40;48.80;;;;;;5015110;28;19910;-83
2022/08/30 10:59:07;;;;;;;;;;;31.30;47.80;;;;;;5033228;28;20001;-81
2022/08/30 11:01:39;;;;;;;;;;;31.20;46.80;;;;;;5016901;28;19964;-81
2022/08/30 11:04:15;;;;;;;;;;;31.10;46.70;;;;;;5017698;28;20019;-82
2022/08/30 11:06:59;;;;;;;;;;;31.10;47.30;;;;;;5022525;28;19935;-81
2022/08/30 11:09:34;;;;;;;;;;;31.00;49.50;;;;;;5023507;28;19940;-83
2022/08/30 11:12:22;;;;;;;;;;;31.00;48.40;;;;;;5031102;28;19956;-83
2022/08/30 11:14:48;;;;;;;;;;;31.00;50.00;;;;;;4997199;28;19914;-82
2022/08/30 11:17:22;;;;;;;;;;;31.10;50.90;;;;;;4995648;28;20364;-84
2022/08/30 11:19:48;;;;;;;;;;;31.10;49.60;;;;;;4992569;28;19914;-85
2022/08/30 11:22:20;;;;;;;;;;;31.00;47.50;;;;;;5008887;28;19976;-85
2022/08/30 11:25:04;;;;;;;;;;;31.00;47.90;;;;;;4994470;28;19917;-84
2022/08/30 11:27:44;;;;;;;;;;;31.00;51.20;;;;;;4993626;28;19914;-84
2022/08/30 11:30:25;;;;;;;;;;;31.00;50.80;;;;;;4993098;28;20433;-84
2022/08/30 11:33:08;;;;;;;;;;;30.90;52.80;;;;;;4996043;28;19910;-85
2022/08/30 11:35:34;;;;;;;;;;;30.90;52.50;;;;;;5008424;28;19910;-85
2022/08/30 11:37:59;;;;;;;;;;;30.60;51.60;;;;;;5011791;28;19956;-85
2022/08/30 11:40:25;;;;;;;;;;;30.70;54.00;;;;;;5019312;28;19920;-83
2022/08/30 11:42:51;;;;;;;;;;;30.80;51.50;;;;;;5022255;28;19910;-83
2022/08/30 11:45:23;;;;;;;;;;;30.80;52.80;;;;;;5018404;28;19979;-83
2022/08/30 11:47:50;;;;;;;;;;;30.90;52.80;;;;;;5031595;28;19977;-83
2022/08/30 11:50:38;;;;;;;;;;;31.00;53.20;;;;;;5018241;28;20016;-84
2022/08/30 11:53:42;;;;;;;;;;;31.00;52.70;;;;;;5035272;28;19917;-83
2022/08/30 11:56:20;;;;;;;;;;;31.10;51.30;;;;;;5015579;28;19959;-83
2022/08/30 11:59:08;;;;;;;;;;;30.90;51.90;;;;;;4995538;28;19916;-84
2022/08/30 12:01:35;;;;;;;;;;;30.90;51.30;;;;;;5011813;28;19914;-84
2022/08/30 12:04:00;;;;;;;;;;;30.80;51.40;;;;;;5027950;28;19910;-85
2022/08/30 12:06:38;;;;;;;;;;;30.80;52.00;;;;;;5011823;28;19933;-84
2022/08/30 12:09:03;;;;;;;;;;;30.90;52.70;;;;;;5027661;28;19939;-84
2022/08/30 12:11:32;;;;;;;;;;;31.00;53.00;;;;;;5012391;28;20400;-85
2022/08/30 12:13:57;;;;;;;;;;;31.00;54.10;;;;;;5027740;28;19910;-84
2022/08/30 12:16:34;;;;;;;;;;;31.00;52.80;;;;;;5027110;28;19910;-84
2022/08/30 12:19:13;;;;;;;;;;;31.00;54.10;;;;;;5012523;28;19928;-84
2022/08/30 12:21:39;;;;;;;;;;;31.10;54.10;;;;;;5027304;28;20372;-84
2022/08/30 12:24:06;;;;;;;;;;;30.90;53.00;;;;;;5015482;28;19916;-84
2022/08/30 12:26:37;;;;;;;;;;;31.00;53.70;;;;;;5016180;28;19968;-84
2022/08/30 12:29:08;;;;;;;;;;;31.00;54.30;;;;;;5019537;28;19952;-83
2022/08/30 12:31:39;;;;;;;;;;;31.10;52.30;;;;;;5019172;28;19964;-83
2022/08/30 12:34:05;;;;;;;;;;;31.10;53.10;;;;;;5031537;28;20388;-84
2022/08/30 12:36:30;;;;;;;;;;;31.10;53.30;;;;;;5012120;28;19910;-83
2022/08/30 12:39:07;;;;;;;;;;;31.10;53.80;;;;;;5016165;28;20408;-83
2022/08/30 12:41:36;;;;;;;;;;;31.10;54.70;;;;;;5031076;28;19971;-83
2022/08/30 12:44:03;;;;;;;;;;;31.10;53.90;;;;;;5016053;28;19918;-83
2022/08/30 12:46:29;;;;;;;;;;;31.20;55.40;;;;;;5030496;28;19960;-83
2022/08/30 12:48:54;;;;;;;;;;;31.40;54.80;;;;;;5031212;28;19980;-82
2022/08/30 12:51:26;;;;;;;;;;;31.50;53.70;;;;;;5032697;28;20385;-83
2022/08/30 12:53:52;;;;;;;;;;;31.50;52.90;;;;;;5018655;28;20419;-83
2022/08/30 12:56:20;;;;;;;;;;;31.60;52.80;;;;;;5033949;28;19939;-83
2022/08/30 12:58:48;;;;;;;;;;;31.60;53.60;;;;;;5034169;28;20284;-84
2022/08/30 13:01:19;;;;;;;;;;;31.50;53.10;;;;;;5018533;28;19913;-83
2022/08/30 13:03:56;;;;;;;;;;;31.20;52.30;;;;;;5018421;28;20313;-83
2022/08/30 13:06:41;;;;;;;;;;;31.10;52.30;;;;;;5018471;28;20400;-82
2022/08/30 13:09:06;;;;;;;;;;;31.00;54.10;;;;;;5006106;28;19918;-83
2022/08/30 13:11:32;;;;;;;;;;;31.10;54.00;;;;;;5018663;28;20384;-82
2022/08/30 13:14:17;;;;;;;;;;;31.10;53.70;;;;;;5018931;28;19945;-83
2022/08/30 13:16:42;;;;;;;;;;;31.10;54.10;;;;;;5008433;28;20289;-83
2022/08/30 13:19:26;;;;;;;;;;;31.10;54.00;;;;;;5016450;28;19910;-84
2022/08/30 13:21:56;;;;;;;;;;;31.20;54.50;;;;;;5016134;28;20381;-83
2022/08/30 13:24:22;;;;;;;;;;;31.20;53.30;;;;;;5031302;28;19920;-83
2022/08/30 13:26:47;;;;;;;;;;;31.10;52.60;;;;;;5030499;28;20357;-83
2022/08/30 13:29:15;;;;;;;;;;;31.10;53.00;;;;;;5032742;28;19916;-83
2022/08/30 13:31:40;;;;;;;;;;;31.00;52.80;;;;;;5033178;28;19910;-83
2022/08/30 13:34:06;;;;;;;;;;;31.10;53.30;;;;;;5018040;28;19917;-83
2022/08/30 13:36:33;;;;;;;;;;;31.20;53.50;;;;;;5032306;28;19917;-83
2022/08/30 13:38:59;;;;;;;;;;;31.20;53.50;;;;;;5018573;28;19909;-83
2022/08/30 13:41:25;;;;;;;;;;;31.60;51.70;;;;;;5030984;28;19914;-85
2022/08/30 13:43:51;;;;;;;;;;;31.80;51.60;;;;;;5031355;28;20300;-84
2022/08/30 13:46:17;;;;;;;;;;;32.00;51.90;;;;;;5030591;28;19909;-84
2022/08/30 13:48:43;;;;;;;;;;;32.10;51.80;;;;;;5031020;28;19940;-84
2022/08/30 13:51:08;;;;;;;;;;;32.20;52.70;;;;;;5030755;28;19910;-84
2022/08/30 13:53:35;;;;;;;;;;;32.30;53.20;;;;;;5030351;28;19913;-83
2022/08/30 13:56:01;;;;;;;;;;;32.30;52.20;;;;;;5029517;28;19961;-83
2022/08/30 13:58:26;;;;;;;;;;;32.10;51.90;;;;;;5026524;28;19962;-84
2022/08/30 14:00:52;;;;;;;;;;;32.10;52.70;;;;;;5032824;28;19917;-86
2022/08/30 14:03:17;;;;;;;;;;;32.10;51.90;;;;;;5017432;28;20043;-85
2022/08/30 14:05:43;;;;;;;;;;;32.00;53.00;;;;;;5017752;28;19964;-84
2022/08/30 14:08:09;;;;;;;;;;;32.00;52.20;;;;;;5034218;28;19917;-85
2022/08/30 14:10:35;;;;;;;;;;;31.90;53.00;;;;;;5015145;28;19914;-84
2022/08/30 14:13:01;;;;;;;;;;;31.80;53.10;;;;;;5014682;28;19909;-84
2022/08/30 14:15:27;;;;;;;;;;;31.70;53.00;;;;;;5029722;28;20044;-85
2022/08/30 14:17:52;;;;;;;;;;;31.70;53.10;;;;;;5029058;28;20447;-84
2022/08/30 14:20:18;;;;;;;;;;;31.80;52.90;;;;;;5029425;28;19963;-84
2022/08/30 14:22:44;;;;;;;;;;;31.80;51.90;;;;;;5029653;28;19910;-85
2022/08/30 14:25:09;;;;;;;;;;;31.80;53.10;;;;;;5029368;28;19916;-85
2022/08/30 14:27:35;;;;;;;;;;;31.70;52.50;;;;;;5028938;28;19977;-83
2022/08/30 14:30:00;;;;;;;;;;;31.90;51.70;;;;;;5014912;28;19909;-84